Makoka, Malawi

10:27 AM CAT on July 29, 2014 (GMT +0200)
Chileka (FWCL) Elev 2516 ft | 15.68 °S, 34.97 °E | Change Station

Current weather conditions updated 27 minutes ago

Mostly Cloudy
Mostly Cloudy
68 °F
Feels Like 68 °F
N
12
Wind Variable Wind from South

Today is forecast to be Warmer than yesterday.

Today
High -- | Low -- °F
--% Chance of Precip.
Yesterday
High -- | Low -- °F
Precip. -- in
6:03 AM 5:27 PM
Waxing Crescent, 5% visible
Pressure 30.39 in
Visibility 6.2 miles
Clouds Scattered Clouds 2000 ft
Mostly Cloudy 8000 ft
Dew Point 54 °F
Humidity 60%
Rainfall 0.00 in
Snow Depth Not available.
UV 5 out of 12
Pollen Not available.
Air Quality Not available.
Flu Activity Not available.
METAR FWCL 290800Z 18010KT 9999 SCT020 BKN080 20/12 Q1029 NOSIG

More Conditions Fewer Conditions

Pressure 30.39 in
Visibility 6.2 miles
Clouds Scattered Clouds 2000 ft
Mostly Cloudy 8000 ft
Dew Point 54 °F
Humidity 60%
Rainfall 0.00 in
Snow Depth Not available.
UV 5 out of 12
Pollen Not available.
Air Quality Not available.
Flu Activity Not available.
METAR FWCL 290800Z 18010KT 9999 SCT020 BKN080 20/12 Q1029 NOSIG

More Conditions Fewer Conditions

10-Day Weather Forecast

Almanac

Astronomy

Jul. 29, 2014 Rise Set
Actual Time 6:03 AM CAT 5:27 PM CAT
Civil Twilight 5:40 AM CAT 5:50 PM CAT
Nautical Twilight 5:14 AM CAT 6:16 PM CAT
Astronomical Twilight 4:49 AM CAT 6:42 PM CAT
Moon 7:26 AM CAT 7:32 PM CAT
Length of Visible Light 12h 09m
Length of Day
11h 24m
Tomorrow will be 0m 34s longer.
Waxing Crescent, 5% of the Moon is Illuminated
Today
Waxing Crescent
Aug 3
First Quarter
Aug 10
Full
Aug 17
Last Quarter
Aug 25
New

Yesterday's Extremes

Country Highs Country Lows

Community

WunderPhotos

Upload Photos

1,738,654 photos uploaded!

Nearby

Snow Depth

Not available.

Earthquake Activity

City Distance Mag. Time & Date
No recent earthquake activity has been reported nearby.
Minimum magnitude displayed is 2.5.

Coastal Water Temperatures

Place Temperature
No Stations Reporting

Nearby Weather Stations

There are no personal weather stations in this area.